Time;durP1;ratioP1;P1;durP2;ratioP2;P2;SDS_P1;SDS_P2;PMS_P1;PMS_P2;Temp;Humidity;BMP_temperature;BMP_pressure;BME280_temperature;BME280_humidity;BME280_pressure;Samples;Min_cycle;Max_cycle;Signal;HPM_P1;HPM_P2
2023/09/28 00:01:12;;;;;;;9.90;4.65;;;;;;;;;;5020962;28;20487;-60
2023/09/28 00:03:38;;;;;;;6.75;4.30;;;;;;;;;;5017834;28;20523;-58
2023/09/28 00:06:04;;;;;;;5.38;4.60;;;;;;;;;;5020129;28;20104;-61
2023/09/28 00:08:32;;;;;;;7.45;5.10;;;;;;;;;;5018416;28;20112;-60
2023/09/28 00:10:58;;;;;;;8.43;4.70;;;;;;;;;;5025494;28;20025;-60
2023/09/28 00:13:24;;;;;;;7.22;4.63;;;;;;;;;;5015475;28;20014;-58
2023/09/28 00:15:50;;;;;;;9.63;4.88;;;;;;;;;;5018277;28;20033;-59
2023/09/28 00:18:16;;;;;;;6.57;4.50;;;;;;;;;;5018472;28;20041;-59
2023/09/28 00:20:42;;;;;;;7.10;4.38;;;;;;;;;;5026359;28;20060;-59
2023/09/28 00:23:08;;;;;;;11.15;4.82;;;;;;;;;;5020748;28;20487;-55
2023/09/28 00:25:34;;;;;;;6.28;4.70;;;;;;;;;;5023500;28;20033;-58
2023/09/28 00:28:00;;;;;;;6.20;4.22;;;;;;;;;;5024119;28;20026;-60
2023/09/28 00:30:26;;;;;;;5.20;4.07;;;;;;;;;;5018708;28;20115;-59
2023/09/28 00:32:56;;;;;;;7.88;4.53;;;;;;;;;;5027579;28;20018;-61
2023/09/28 00:35:22;;;;;;;9.68;4.63;;;;;;;;;;5018451;28;20022;-57
2023/09/28 00:37:49;;;;;;;6.93;4.45;;;;;;;;;;5025765;28;20134;-56
2023/09/28 00:40:18;;;;;;;7.50;4.57;;;;;;;;;;5019469;28;20018;-61
2023/09/28 00:42:45;;;;;;;8.30;4.65;;;;;;;;;;5019071;28;20034;-57
2023/09/28 00:45:11;;;;;;;5.20;4.35;;;;;;;;;;5012925;28;20032;-58
2023/09/28 00:47:40;;;;;;;8.75;3.88;;;;;;;;;;5024044;28;20026;-60
2023/09/28 00:50:10;;;;;;;7.55;4.53;;;;;;;;;;5022968;28;20037;-55
2023/09/28 00:52:40;;;;;;;10.43;4.80;;;;;;;;;;5020575;28;20026;-59
2023/09/28 00:55:07;;;;;;;7.25;4.97;;;;;;;;;;5026647;28;20022;-58
2023/09/28 00:57:33;;;;;;;7.43;4.55;;;;;;;;;;5018834;28;20057;-58
2023/09/28 01:00:01;;;;;;;7.10;5.05;;;;;;;;;;5020429;28;20400;-60
2023/09/28 01:02:27;;;;;;;8.63;4.93;;;;;;;;;;5016917;28;20109;-60
2023/09/28 01:04:53;;;;;;;5.65;4.28;;;;;;;;;;5014211;28;20034;-60
2023/09/28 01:07:27;;;;;;;9.23;4.70;;;;;;;;;;5022022;28;20037;-61
2023/09/28 01:09:54;;;;;;;7.93;5.38;;;;;;;;;;5019497;28;20037;-59
2023/09/28 01:12:21;;;;;;;7.32;5.55;;;;;;;;;;5017347;28;20026;-60
2023/09/28 01:14:49;;;;;;;8.00;4.93;;;;;;;;;;5019484;28;20099;-58
2023/09/28 01:17:16;;;;;;;8.73;4.95;;;;;;;;;;5024871;28;20033;-59
2023/09/28 01:19:43;;;;;;;10.27;5.00;;;;;;;;;;5025850;28;20032;-59
2023/09/28 01:22:14;;;;;;;7.35;5.35;;;;;;;;;;5027586;28;20026;-58
2023/09/28 01:24:40;;;;;;;11.38;6.07;;;;;;;;;;5020963;28;20109;-54
2023/09/28 01:27:06;;;;;;;8.43;5.30;;;;;;;;;;5039316;28;20431;-54
2023/09/28 01:29:32;;;;;;;6.28;5.03;;;;;;;;;;5024582;28;20432;-59
2023/09/28 01:31:58;;;;;;;8.35;5.32;;;;;;;;;;5025658;28;20355;-59
2023/09/28 01:34:24;;;;;;;6.13;4.47;;;;;;;;;;5022955;28;20033;-60
2023/09/28 01:36:50;;;;;;;10.48;5.00;;;;;;;;;;5014769;28;20496;-59
2023/09/28 01:39:16;;;;;;;6.85;4.40;;;;;;;;;;5019988;28;20049;-60
2023/09/28 01:41:42;;;;;;;8.65;5.00;;;;;;;;;;5019186;28;20052;-54
2023/09/28 01:44:08;;;;;;;9.88;5.15;;;;;;;;;;5017251;28;20025;-60
2023/09/28 01:46:34;;;;;;;8.73;4.18;;;;;;;;;;5014171;28;20033;-58
2023/09/28 01:49:00;;;;;;;6.43;4.20;;;;;;;;;;5019681;28;20036;-58
2023/09/28 01:51:26;;;;;;;5.55;4.88;;;;;;;;;;5015669;28;20022;-59
2023/09/28 01:53:52;;;;;;;5.57;4.30;;;;;;;;;;5017688;28;20110;-59
2023/09/28 01:56:18;;;;;;;7.30;4.82;;;;;;;;;;5020243;28;20028;-57
2023/09/28 01:58:44;;;;;;;6.32;4.60;;;;;;;;;;5024171;28;20040;-58
2023/09/28 02:01:20;;;;;;;6.78;4.65;;;;;;;;;;5017651;28;20026;-59
2023/09/28 02:03:47;;;;;;;6.05;4.22;;;;;;;;;;5022887;28;20087;-59
2023/09/28 02:06:14;;;;;;;6.22;4.65;;;;;;;;;;5017181;28;20030;-60
2023/09/28 02:08:40;;;;;;;6.15;4.70;;;;;;;;;;5011065;28;20484;-60
2023/09/28 02:11:06;;;;;;;8.43;4.15;;;;;;;;;;5018153;28;20030;-56
2023/09/28 02:13:32;;;;;;;6.05;4.35;;;;;;;;;;5013799;28;20025;-60
2023/09/28 02:15:58;;;;;;;6.40;4.60;;;;;;;;;;5008850;28;20083;-60
2023/09/28 02:18:24;;;;;;;5.90;4.18;;;;;;;;;;5010448;28;20090;-60
2023/09/28 02:20:50;;;;;;;8.15;4.85;;;;;;;;;;5011483;28;20108;-57
2023/09/28 02:23:16;;;;;;;7.82;4.63;;;;;;;;;;5026175;28;20038;-60
2023/09/28 02:25:42;;;;;;;9.13;4.78;;;;;;;;;;5014982;28;20100;-60
2023/09/28 02:28:09;;;;;;;10.63;4.70;;;;;;;;;;5013627;28;20085;-61
2023/09/28 02:30:35;;;;;;;9.45;4.90;;;;;;;;;;5012589;28;20361;-59
2023/09/28 02:33:01;;;;;;;7.25;4.47;;;;;;;;;;5018696;28;20072;-59
2023/09/28 02:35:27;;;;;;;9.32;5.30;;;;;;;;;;5018886;28;20044;-60
2023/09/28 02:37:53;;;;;;;10.18;4.30;;;;;;;;;;5014936;28;20056;-61
2023/09/28 02:40:19;;;;;;;9.38;4.97;;;;;;;;;;5019632;28;20033;-61
2023/09/28 02:42:49;;;;;;;6.00;4.35;;;;;;;;;;5014647;28;20361;-61
2023/09/28 02:45:15;;;;;;;6.82;4.72;;;;;;;;;;5014454;28;20045;-60
2023/09/28 02:47:42;;;;;;;9.82;5.10;;;;;;;;;;5016154;28;20045;-59
2023/09/28 02:50:11;;;;;;;8.38;4.97;;;;;;;;;;5017529;28;20028;-59
2023/09/28 02:52:41;;;;;;;12.20;5.93;;;;;;;;;;5011411;28;20022;-57
2023/09/28 02:55:08;;;;;;;8.10;5.15;;;;;;;;;;5025157;28;20511;-57
2023/09/28 02:57:34;;;;;;;13.68;5.38;;;;;;;;;;5015053;28;20151;-55
2023/09/28 03:00:01;;;;;;;6.55;5.07;;;;;;;;;;5023611;28;20065;-57
2023/09/28 03:02:27;;;;;;;8.15;5.43;;;;;;;;;;5012221;28;20025;-57
2023/09/28 03:04:53;;;;;;;6.90;5.05;;;;;;;;;;5013957;28;21501;-60
2023/09/28 03:07:19;;;;;;;7.28;5.30;;;;;;;;;;5021105;28;20025;-59
2023/09/28 03:09:46;;;;;;;6.32;5.05;;;;;;;;;;5019049;28;20037;-60
2023/09/28 03:12:12;;;;;;;16.80;6.10;;;;;;;;;;5014793;28;20017;-60
2023/09/28 03:14:38;;;;;;;8.15;5.85;;;;;;;;;;5021914;28;20464;-61
2023/09/28 03:17:04;;;;;;;9.13;5.47;;;;;;;;;;5017835;28;20033;-61
2023/09/28 03:19:31;;;;;;;10.20;5.50;;;;;;;;;;5022606;28;20029;-58
2023/09/28 03:21:56;;;;;;;10.20;5.57;;;;;;;;;;5019521;28;20160;-59
2023/09/28 03:24:23;;;;;;;9.25;6.43;;;;;;;;;;5019420;28;20112;-58
2023/09/28 03:26:50;;;;;;;13.60;5.75;;;;;;;;;;5024598;28;20038;-59
2023/09/28 03:29:16;;;;;;;7.38;5.03;;;;;;;;;;5024017;28;20476;-59
2023/09/28 03:31:42;;;;;;;7.55;5.80;;;;;;;;;;5013525;28;20038;-59
2023/09/28 03:34:08;;;;;;;9.32;6.05;;;;;;;;;;5014748;28;20515;-55
2023/09/28 03:36:34;;;;;;;7.20;5.15;;;;;;;;;;5017273;28;20021;-58
2023/09/28 03:39:00;;;;;;;9.68;5.55;;;;;;;;;;5025288;28;20044;-61
2023/09/28 03:41:26;;;;;;;14.98;5.20;;;;;;;;;;5021106;28;20037;-58
2023/09/28 03:43:52;;;;;;;11.65;5.85;;;;;;;;;;5022961;28;20026;-59
2023/09/28 03:46:21;;;;;;;9.23;5.93;;;;;;;;;;5017860;28;20036;-60
2023/09/28 03:48:47;;;;;;;7.20;5.43;;;;;;;;;;5016713;28;20502;-61
2023/09/28 03:51:15;;;;;;;7.43;5.32;;;;;;;;;;5015813;28;20029;-60
2023/09/28 03:53:41;;;;;;;8.48;5.82;;;;;;;;;;5019451;28;20458;-58
2023/09/28 03:56:07;;;;;;;12.93;5.80;;;;;;;;;;5008201;28;20423;-61
2023/09/28 03:58:34;;;;;;;9.25;5.80;;;;;;;;;;5019168;28;20495;-56
2023/09/28 04:01:03;;;;;;;8.75;5.80;;;;;;;;;;5014532;28;20038;-59
2023/09/28 04:03:28;;;;;;;10.48;5.18;;;;;;;;;;5015416;28;20017;-60
2023/09/28 04:05:54;;;;;;;7.70;5.80;;;;;;;;;;5013926;28;20037;-61
2023/09/28 04:08:21;;;;;;;10.68;6.03;;;;;;;;;;5016602;28;20032;-58
2023/09/28 04:10:46;;;;;;;13.75;6.10;;;;;;;;;;5015559;28;20048;-58
2023/09/28 04:13:12;;;;;;;9.60;5.63;;;;;;;;;;5017293;28;20488;-59
2023/09/28 04:15:39;;;;;;;9.50;6.53;;;;;;;;;;5018713;28;20500;-56
2023/09/28 04:18:05;;;;;;;9.80;6.18;;;;;;;;;;5013155;28;20052;-58
2023/09/28 04:20:31;;;;;;;7.80;6.10;;;;;;;;;;5019519;28;20053;-55
2023/09/28 04:22:58;;;;;;;13.93;7.15;;;;;;;;;;5017517;28;20022;-58
2023/09/28 04:25:26;;;;;;;10.85;5.78;;;;;;;;;;5017023;28;20030;-60
2023/09/28 04:27:52;;;;;;;9.77;6.82;;;;;;;;;;5011040;28;20032;-60
2023/09/28 04:30:18;;;;;;;11.23;6.60;;;;;;;;;;5010983;28;20113;-60
2023/09/28 04:32:44;;;;;;;9.40;5.82;;;;;;;;;;5017497;28;20026;-61
2023/09/28 04:35:10;;;;;;;11.50;6.53;;;;;;;;;;5023389;28;20372;-59
2023/09/28 04:37:37;;;;;;;9.05;6.40;;;;;;;;;;5011762;28;20081;-61
2023/09/28 04:40:03;;;;;;;9.30;6.13;;;;;;;;;;5015332;28;20164;-59
2023/09/28 04:42:29;;;;;;;8.68;6.40;;;;;;;;;;5013954;28;20022;-61
2023/09/28 04:44:55;;;;;;;9.85;6.30;;;;;;;;;;5016511;28;20182;-60
2023/09/28 04:47:21;;;;;;;14.52;6.90;;;;;;;;;;5012988;28;20119;-59
2023/09/28 04:49:48;;;;;;;13.88;7.18;;;;;;;;;;5023012;28;20037;-59
2023/09/28 04:52:14;;;;;;;9.98;7.13;;;;;;;;;;5017506;28;20037;-59
2023/09/28 04:54:40;;;;;;;11.13;7.05;;;;;;;;;;5016553;28;20526;-58
2023/09/28 04:57:06;;;;;;;11.38;7.85;;;;;;;;;;5010870;28;20036;-54
2023/09/28 04:59:38;;;;;;;10.35;6.85;;;;;;;;;;5016939;28;20116;-58
2023/09/28 05:02:04;;;;;;;15.23;6.68;;;;;;;;;;5016547;28;20030;-59
2023/09/28 05:04:29;;;;;;;8.38;5.78;;;;;;;;;;5020356;28;20048;-56
2023/09/28 05:06:56;;;;;;;12.27;6.47;;;;;;;;;;5017595;28;20038;-59
2023/09/28 05:09:23;;;;;;;9.05;6.75;;;;;;;;;;5018317;28;20420;-60
2023/09/28 05:11:49;;;;;;;15.07;7.30;;;;;;;;;;5014755;28;20036;-61
2023/09/28 05:14:15;;;;;;;13.50;7.30;;;;;;;;;;5012917;28;20029;-59
2023/09/28 05:16:41;;;;;;;10.10;7.20;;;;;;;;;;5017377;28;20053;-60
2023/09/28 05:19:08;;;;;;;11.55;7.40;;;;;;;;;;5021452;28;20136;-61
2023/09/28 05:21:34;;;;;;;11.52;6.72;;;;;;;;;;5020095;28;20563;-61
2023/09/28 05:24:00;;;;;;;11.05;7.28;;;;;;;;;;5017852;28;20056;-62
2023/09/28 05:26:26;;;;;;;14.05;8.05;;;;;;;;;;5023664;28;20084;-60
2023/09/28 05:28:52;;;;;;;10.35;7.03;;;;;;;;;;5015945;28;20079;-62
2023/09/28 05:31:19;;;;;;;11.88;7.53;;;;;;;;;;5021404;28;20108;-62
2023/09/28 05:33:45;;;;;;;17.40;8.60;;;;;;;;;;5016688;28;20045;-62
2023/09/28 05:36:12;;;;;;;12.90;8.00;;;;;;;;;;5023448;28;20111;-62
2023/09/28 05:38:38;;;;;;;12.10;7.32;;;;;;;;;;5020874;28;20033;-61
2023/09/28 05:41:03;;;;;;;11.57;7.57;;;;;;;;;;5017342;28;20030;-62
2023/09/28 05:43:30;;;;;;;10.98;7.38;;;;;;;;;;5019948;28;21358;-62
2023/09/28 05:45:56;;;;;;;13.07;7.57;;;;;;;;;;5017229;28;20026;-62
2023/09/28 05:48:22;;;;;;;13.40;6.82;;;;;;;;;;5016633;28;20049;-62
2023/09/28 05:50:48;;;;;;;11.23;7.22;;;;;;;;;;5014802;28;20518;-61
2023/09/28 05:53:14;;;;;;;13.52;6.68;;;;;;;;;;5015701;28;20046;-61
2023/09/28 05:55:40;;;;;;;17.90;9.10;;;;;;;;;;5020219;28;20030;-61
2023/09/28 05:58:06;;;;;;;12.10;7.60;;;;;;;;;;5016809;28;20034;-62
2023/09/28 06:00:32;;;;;;;12.55;7.78;;;;;;;;;;5015831;28;20103;-62
2023/09/28 06:02:58;;;;;;;11.85;7.45;;;;;;;;;;5022966;28;20040;-62
2023/09/28 06:05:24;;;;;;;16.55;8.90;;;;;;;;;;5019645;28;20029;-62
2023/09/28 06:07:50;;;;;;;16.83;8.75;;;;;;;;;;5016698;28;20597;-62
2023/09/28 06:10:16;;;;;;;14.23;7.78;;;;;;;;;;5020183;28;20408;-62
2023/09/28 06:12:43;;;;;;;10.57;7.88;;;;;;;;;;5015884;28;20026;-62
2023/09/28 06:15:09;;;;;;;13.30;8.35;;;;;;;;;;5014124;28;20124;-61
2023/09/28 06:17:35;;;;;;;14.65;8.40;;;;;;;;;;5019206;28;20277;-63
2023/09/28 06:20:01;;;;;;;11.98;7.88;;;;;;;;;;5012960;28;20041;-62
2023/09/28 06:22:28;;;;;;;14.40;8.63;;;;;;;;;;5015885;28;20053;-62
2023/09/28 06:24:55;;;;;;;11.07;7.78;;;;;;;;;;5017866;28;20104;-61
2023/09/28 06:27:21;;;;;;;14.18;8.65;;;;;;;;;;5019593;28;20053;-62
2023/09/28 06:29:52;;;;;;;10.63;7.10;;;;;;;;;;5018970;28;20293;-62
2023/09/28 06:32:18;;;;;;;20.00;8.63;;;;;;;;;;5011650;28;20415;-61
2023/09/28 06:34:44;;;;;;;14.68;9.20;;;;;;;;;;5024024;28;20026;-62
2023/09/28 06:37:10;;;;;;;12.20;7.45;;;;;;;;;;5012641;28;20471;-60
2023/09/28 06:39:37;;;;;;;12.73;7.70;;;;;;;;;;5018101;28;20036;-60
2023/09/28 06:42:04;;;;;;;12.75;8.02;;;;;;;;;;5021575;28;20026;-61
2023/09/28 06:44:30;;;;;;;13.23;8.40;;;;;;;;;;5014651;28;20618;-61
2023/09/28 06:46:57;;;;;;;13.02;8.35;;;;;;;;;;5012186;28;20499;-62
2023/09/28 06:49:23;;;;;;;20.15;8.57;;;;;;;;;;5017845;28;20105;-59
2023/09/28 06:51:49;;;;;;;18.98;8.57;;;;;;;;;;5015727;28;20475;-61
2023/09/28 06:54:16;;;;;;;15.48;8.38;;;;;;;;;;5013785;28;20550;-62
2023/09/28 06:56:42;;;;;;;14.63;7.93;;;;;;;;;;5016771;28;20025;-61
2023/09/28 06:59:08;;;;;;;14.93;7.97;;;;;;;;;;5009738;28;20038;-61
2023/09/28 07:01:35;;;;;;;17.58;7.78;;;;;;;;;;5014320;28;20039;-61
2023/09/28 07:04:01;;;;;;;19.75;7.90;;;;;;;;;;5015802;28;20029;-61
2023/09/28 07:06:27;;;;;;;21.90;8.05;;;;;;;;;;5020036;28;20029;-62
2023/09/28 07:08:53;;;;;;;15.95;8.40;;;;;;;;;;5016204;28;20422;-61
2023/09/28 07:11:19;;;;;;;11.52;6.80;;;;;;;;;;5018854;28;20040;-62
2023/09/28 07:13:46;;;;;;;16.55;8.15;;;;;;;;;;5015255;28;20033;-61
2023/09/28 07:16:12;;;;;;;16.48;8.55;;;;;;;;;;5014455;28;20017;-60
2023/09/28 07:18:38;;;;;;;16.90;8.70;;;;;;;;;;5019297;28;20037;-60
2023/09/28 07:21:04;;;;;;;12.75;7.85;;;;;;;;;;5015967;28;20026;-61
2023/09/28 07:23:30;;;;;;;14.80;7.20;;;;;;;;;;5019135;28;20101;-62
2023/09/28 07:25:56;;;;;;;19.17;9.43;;;;;;;;;;5010834;28;20053;-61
2023/09/28 07:28:22;;;;;;;15.20;8.13;;;;;;;;;;5019435;28;20026;-61
2023/09/28 07:30:48;;;;;;;18.05;8.40;;;;;;;;;;5011620;28;20054;-61
2023/09/28 07:33:15;;;;;;;13.50;7.00;;;;;;;;;;5018187;28;20025;-62
2023/09/28 07:35:43;;;;;;;17.88;7.50;;;;;;;;;;5012612;28;20022;-62
2023/09/28 07:38:09;;;;;;;13.82;8.13;;;;;;;;;;5014650;28;20101;-62
2023/09/28 07:40:35;;;;;;;10.02;6.03;;;;;;;;;;5016059;28;20104;-62
2023/09/28 07:43:01;;;;;;;16.77;8.00;;;;;;;;;;5016169;28;20480;-61
2023/09/28 07:45:27;;;;;;;12.55;6.70;;;;;;;;;;5021596;28;20389;-62
2023/09/28 07:47:53;;;;;;;14.18;6.80;;;;;;;;;;5019758;28;20105;-62
2023/09/28 07:50:19;;;;;;;12.07;6.55;;;;;;;;;;5013050;28;20492;-61
2023/09/28 07:52:45;;;;;;;18.13;7.18;;;;;;;;;;5014482;28;20037;-61
2023/09/28 07:55:13;;;;;;;20.77;7.45;;;;;;;;;;5018173;28;20028;-62
2023/09/28 07:57:39;;;;;;;13.63;6.65;;;;;;;;;;5019648;28;20739;-62
2023/09/28 08:00:06;;;;;;;14.77;6.57;;;;;;;;;;5024692;28;20079;-62
2023/09/28 08:02:32;;;;;;;15.80;6.20;;;;;;;;;;5020454;28;20029;-61
2023/09/28 08:04:58;;;;;;;14.38;6.43;;;;;;;;;;5018727;28;20034;-61
2023/09/28 08:07:24;;;;;;;11.13;5.80;;;;;;;;;;5027670;28;20025;-59
2023/09/28 08:09:50;;;;;;;12.60;6.13;;;;;;;;;;5026572;28;20052;-61
2023/09/28 08:12:16;;;;;;;10.57;5.75;;;;;;;;;;5024917;28;20026;-62
2023/09/28 08:14:42;;;;;;;12.75;6.18;;;;;;;;;;5023780;28;20041;-62
2023/09/28 08:17:09;;;;;;;10.52;5.60;;;;;;;;;;5025510;28;20104;-62
2023/09/28 08:19:36;;;;;;;12.32;5.10;;;;;;;;;;5031656;28;20100;-62
2023/09/28 08:22:03;;;;;;;9.68;5.15;;;;;;;;;;5028940;28;20030;-62
2023/09/28 08:24:29;;;;;;;12.73;5.35;;;;;;;;;;5021477;28;20033;-62
2023/09/28 08:26:55;;;;;;;14.80;4.43;;;;;;;;;;5022206;28;20030;-61
2023/09/28 08:29:21;;;;;;;9.70;4.88;;;;;;;;;;5024811;28;20068;-62
2023/09/28 08:31:47;;;;;;;14.35;6.43;;;;;;;;;;5023774;28;20384;-62
2023/09/28 08:34:13;;;;;;;10.00;4.50;;;;;;;;;;5025531;28;20085;-62
2023/09/28 08:36:39;;;;;;;11.32;4.45;;;;;;;;;;5035519;28;20096;-62
2023/09/28 08:39:06;;;;;;;10.25;4.63;;;;;;;;;;5023092;28;20034;-62
2023/09/28 08:41:32;;;;;;;8.70;4.35;;;;;;;;;;5029211;28;20030;-62
2023/09/28 08:44:03;;;;;;;10.38;5.25;;;;;;;;;;5020151;28;20034;-62
2023/09/28 08:46:31;;;;;;;8.95;4.93;;;;;;;;;;5026839;28;20026;-62
2023/09/28 08:48:59;;;;;;;10.50;5.63;;;;;;;;;;5026553;28;20067;-62
2023/09/28 08:51:26;;;;;;;17.13;6.45;;;;;;;;;;5027012;28;20020;-61
2023/09/28 08:53:52;;;;;;;14.77;6.63;;;;;;;;;;5022096;28;20032;-62
2023/09/28 08:56:19;;;;;;;13.88;6.03;;;;;;;;;;5025026;28;20032;-62
2023/09/28 08:58:46;;;;;;;10.18;6.20;;;;;;;;;;5019025;28;20108;-62
2023/09/28 09:01:12;;;;;;;11.15;5.57;;;;;;;;;;5028410;28;20491;-62
2023/09/28 09:03:40;;;;;;;14.15;5.63;;;;;;;;;;5032532;28;20526;-62
2023/09/28 09:06:06;;;;;;;11.57;5.40;;;;;;;;;;5029625;28;20474;-62
2023/09/28 09:08:35;;;;;;;10.77;5.47;;;;;;;;;;5023681;28;20053;-63
2023/09/28 09:11:01;;;;;;;17.88;6.75;;;;;;;;;;5032399;28;20025;-61
2023/09/28 09:13:29;;;;;;;8.45;4.80;;;;;;;;;;5026185;28;20021;-62
2023/09/28 09:15:55;;;;;;;15.13;6.43;;;;;;;;;;5019474;28;20560;-62
2023/09/28 09:18:24;;;;;;;11.32;5.55;;;;;;;;;;5024551;28;20038;-63
2023/09/28 09:20:50;;;;;;;16.23;5.90;;;;;;;;;;5030236;28;20029;-62
2023/09/28 09:23:16;;;;;;;8.70;5.32;;;;;;;;;;5026208;28;20053;-62
2023/09/28 09:25:43;;;;;;;13.13;5.10;;;;;;;;;;5028406;28;20033;-63
2023/09/28 09:28:10;;;;;;;14.90;6.22;;;;;;;;;;5022568;28;20045;-62
2023/09/28 09:30:36;;;;;;;19.75;6.85;;;;;;;;;;5023191;28;20022;-62
2023/09/28 09:33:04;;;;;;;15.15;6.32;;;;;;;;;;5029336;28;20018;-62
2023/09/28 09:35:31;;;;;;;15.43;6.90;;;;;;;;;;5026587;28;20030;-62
2023/09/28 09:37:57;;;;;;;15.43;6.50;;;;;;;;;;5030071;28;20108;-62
2023/09/28 09:40:23;;;;;;;16.75;6.07;;;;;;;;;;5022582;28;20101;-62
2023/09/28 09:42:48;;;;;;;15.90;6.65;;;;;;;;;;5020048;28;20025;-62
2023/09/28 09:45:15;;;;;;;13.13;5.72;;;;;;;;;;5017329;28;20040;-62
2023/09/28 09:47:46;;;;;;;13.13;6.35;;;;;;;;;;5026927;28;20022;-63
2023/09/28 09:50:14;;;;;;;15.48;5.75;;;;;;;;;;5029707;28;20033;-62
2023/09/28 09:52:41;;;;;;;11.27;5.65;;;;;;;;;;5022303;28;20083;-63
2023/09/28 09:55:08;;;;;;;12.05;5.15;;;;;;;;;;5024560;28;20029;-62
2023/09/28 09:57:37;;;;;;;14.50;5.90;;;;;;;;;;5027453;28;20030;-62
2023/09/28 10:00:07;;;;;;;15.23;5.75;;;;;;;;;;5020977;28;20074;-63
2023/09/28 10:02:36;;;;;;;15.10;5.53;;;;;;;;;;5023393;28;20033;-62
2023/09/28 10:05:04;;;;;;;11.48;5.43;;;;;;;;;;5027575;28;20418;-62
2023/09/28 10:07:32;;;;;;;16.40;5.88;;;;;;;;;;5024884;28;20040;-63
2023/09/28 10:09:58;;;;;;;7.40;4.65;;;;;;;;;;5020994;28;20029;-62
2023/09/28 10:12:24;;;;;;;15.73;4.72;;;;;;;;;;5022606;28;20045;-62
2023/09/28 10:14:51;;;;;;;15.05;4.68;;;;;;;;;;5024801;28;20474;-62
2023/09/28 10:17:17;;;;;;;10.13;4.85;;;;;;;;;;5029405;28;20425;-58
2023/09/28 10:19:43;;;;;;;16.77;5.22;;;;;;;;;;5020285;28;20084;-62
2023/09/28 10:22:12;;;;;;;10.10;4.25;;;;;;;;;;5027558;28;20025;-62
2023/09/28 10:24:38;;;;;;;14.13;4.97;;;;;;;;;;5021163;28;20095;-62
2023/09/28 10:27:09;;;;;;;10.27;4.45;;;;;;;;;;5020209;28;20048;-62
2023/09/28 10:29:35;;;;;;;12.45;4.97;;;;;;;;;;5018302;28;20018;-62
2023/09/28 10:32:03;;;;;;;15.23;5.00;;;;;;;;;;5031021;28;20426;-61
2023/09/28 10:34:30;;;;;;;14.85;5.30;;;;;;;;;;5021805;28;20105;-62
2023/09/28 10:37:10;;;;;;;13.65;4.75;;;;;;;;;;5024423;28;20101;-62
2023/09/28 10:39:36;;;;;;;14.88;4.30;;;;;;;;;;5019611;28;20026;-62
2023/09/28 10:42:24;;;;;;;13.25;4.40;;;;;;;;;;5018516;28;20591;-61
2023/09/28 10:44:54;;;;;;;9.73;3.63;;;;;;;;;;5011811;28;20812;-62
2023/09/28 10:47:21;;;;;;;10.07;4.68;;;;;;;;;;5021949;28;20033;-61
2023/09/28 10:49:48;;;;;;;16.45;4.38;;;;;;;;;;5017043;28;20638;-63
2023/09/28 10:52:16;;;;;;;12.45;4.63;;;;;;;;;;5021227;28;20112;-62
2023/09/28 10:54:44;;;;;;;15.02;5.00;;;;;;;;;;5010793;28;20496;-62
2023/09/28 10:57:10;;;;;;;9.77;4.20;;;;;;;;;;5021285;28;20022;-63
2023/09/28 10:59:37;;;;;;;9.13;4.55;;;;;;;;;;5020231;28;20037;-62
2023/09/28 11:02:03;;;;;;;11.70;4.18;;;;;;;;;;5019909;28;20036;-62
2023/09/28 11:04:29;;;;;;;11.35;4.28;;;;;;;;;;5022333;28;20035;-63
2023/09/28 11:06:55;;;;;;;14.48;4.80;;;;;;;;;;5026896;28;20418;-61
2023/09/28 11:09:21;;;;;;;11.85;4.20;;;;;;;;;;5027838;28;20197;-63
2023/09/28 11:11:49;;;;;;;16.92;4.57;;;;;;;;;;5019793;28;20121;-62
2023/09/28 11:14:15;;;;;;;12.73;4.30;;;;;;;;;;5019106;28;20044;-62
2023/09/28 11:16:49;;;;;;;10.57;5.10;;;;;;;;;;5021899;28;20029;-62
2023/09/28 11:19:15;;;;;;;8.35;3.97;;;;;;;;;;5022649;28;20029;-62
2023/09/28 11:21:42;;;;;;;11.05;4.03;;;;;;;;;;5017437;28;20443;-62
2023/09/28 11:24:08;;;;;;;10.00;4.18;;;;;;;;;;5016783;28;20075;-62
2023/09/28 11:26:34;;;;;;;14.88;4.35;;;;;;;;;;5020840;28;20033;-61
2023/09/28 11:29:00;;;;;;;14.10;4.50;;;;;;;;;;5019525;28;20029;-62
2023/09/28 11:31:27;;;;;;;12.00;4.25;;;;;;;;;;5016398;28;20479;-62
2023/09/28 11:33:56;;;;;;;10.45;4.35;;;;;;;;;;5024127;28;20033;-62
2023/09/28 11:36:22;;;;;;;10.23;3.78;;;;;;;;;;5017011;28;20032;-62
2023/09/28 11:38:49;;;;;;;11.15;4.25;;;;;;;;;;5025543;28;20038;-62
2023/09/28 11:41:15;;;;;;;8.60;4.00;;;;;;;;;;5023811;28;20121;-63
2023/09/28 11:43:49;;;;;;;12.70;4.57;;;;;;;;;;5021987;28;20071;-62
2023/09/28 11:46:25;;;;;;;11.57;4.03;;;;;;;;;;5009877;28;20880;-62
2023/09/28 11:49:07;;;;;;;20.10;4.30;;;;;;;;;;5020072;28;20025;-62
2023/09/28 11:51:34;;;;;;;11.45;4.10;;;;;;;;;;5019355;28;20063;-62
2023/09/28 11:54:00;;;;;;;18.73;4.25;;;;;;;;;;5015540;28;20029;-62
2023/09/28 11:56:26;;;;;;;8.43;3.90;;;;;;;;;;5012039;28;20113;-61
2023/09/28 11:58:52;;;;;;;6.40;3.28;;;;;;;;;;5018144;28;20032;-62
2023/09/28 12:01:19;;;;;;;10.60;3.53;;;;;;;;;;5014843;28;20034;-62
2023/09/28 12:03:47;;;;;;;14.32;4.13;;;;;;;;;;5013983;28;20064;-62
2023/09/28 12:06:14;;;;;;;9.45;3.97;;;;;;;;;;5016006;28;20504;-62
2023/09/28 12:08:41;;;;;;;8.23;3.95;;;;;;;;;;5010712;28;20037;-63
2023/09/28 12:11:07;;;;;;;8.95;3.80;;;;;;;;;;5011792;28;20024;-62
2023/09/28 12:13:33;;;;;;;9.40;4.30;;;;;;;;;;5014894;28;20053;-62
2023/09/28 12:16:00;;;;;;;12.15;4.57;;;;;;;;;;5016531;28;20084;-62
2023/09/28 12:18:27;;;;;;;8.40;3.88;;;;;;;;;;5014044;28;20033;-62
2023/09/28 12:20:53;;;;;;;10.73;3.58;;;;;;;;;;5020034;28;20029;-62
2023/09/28 12:23:19;;;;;;;7.97;4.07;;;;;;;;;;5018279;28;20032;-62
2023/09/28 12:25:45;;;;;;;11.07;4.78;;;;;;;;;;5018954;28;20041;-62
2023/09/28 12:28:11;;;;;;;10.10;4.05;;;;;;;;;;5012078;28;20568;-61
2023/09/28 12:30:37;;;;;;;11.25;4.10;;;;;;;;;;5017876;28;20025;-61
2023/09/28 12:33:04;;;;;;;10.93;4.20;;;;;;;;;;5019581;28;20388;-62
2023/09/28 12:35:30;;;;;;;9.20;3.85;;;;;;;;;;5018097;28;20104;-62
2023/09/28 12:37:56;;;;;;;10.50;3.60;;;;;;;;;;5015350;28;20643;-62
2023/09/28 12:40:22;;;;;;;9.98;3.70;;;;;;;;;;5018296;28;20095;-62
2023/09/28 12:42:48;;;;;;;6.80;3.85;;;;;;;;;;5024098;28;20061;-62
2023/09/28 12:45:15;;;;;;;10.98;4.18;;;;;;;;;;5021351;28;20105;-62
2023/09/28 12:47:41;;;;;;;10.77;3.70;;;;;;;;;;5018852;28;20145;-61
2023/09/28 12:50:07;;;;;;;10.05;4.00;;;;;;;;;;5019596;28;20059;-60
2023/09/28 12:52:33;;;;;;;9.35;3.70;;;;;;;;;;5011757;28;20119;-62
2023/09/28 12:54:59;;;;;;;20.48;4.43;;;;;;;;;;5024079;28;20516;-62
2023/09/28 12:57:25;;;;;;;10.68;3.75;;;;;;;;;;5028629;28;20029;-62
2023/09/28 12:59:51;;;;;;;12.45;4.38;;;;;;;;;;5012709;28;20109;-62
2023/09/28 13:02:17;;;;;;;8.90;3.65;;;;;;;;;;5013541;28;20128;-62
2023/09/28 13:04:44;;;;;;;9.15;4.25;;;;;;;;;;5016226;28;20828;-62
2023/09/28 13:07:10;;;;;;;8.25;4.03;;;;;;;;;;5022261;28;20120;-62
2023/09/28 13:09:36;;;;;;;14.73;4.57;;;;;;;;;;5018763;28;20109;-62
2023/09/28 13:12:03;;;;;;;13.63;4.60;;;;;;;;;;5018446;28;20792;-62
2023/09/28 13:14:30;;;;;;;11.43;3.60;;;;;;;;;;5020844;28;20018;-60
2023/09/28 13:16:57;;;;;;;8.82;3.97;;;;;;;;;;5019012;28;21896;-62
2023/09/28 13:19:26;;;;;;;15.60;4.68;;;;;;;;;;5018462;28;20534;-62
2023/09/28 13:21:58;;;;;;;12.20;4.10;;;;;;;;;;5016291;28;20029;-62
2023/09/28 13:24:25;;;;;;;10.98;3.85;;;;;;;;;;5018689;28;20022;-62
2023/09/28 13:26:51;;;;;;;12.23;4.05;;;;;;;;;;5022997;28;20551;-62
2023/09/28 13:29:17;;;;;;;9.52;3.95;;;;;;;;;;5015058;28;20033;-62
2023/09/28 13:31:46;;;;;;;21.38;4.00;;;;;;;;;;5012992;28;20026;-62
2023/09/28 13:34:14;;;;;;;14.60;3.80;;;;;;;;;;5015962;28;20388;-62
2023/09/28 13:36:40;;;;;;;13.40;4.18;;;;;;;;;;5015914;28;20018;-62
2023/09/28 13:39:06;;;;;;;13.43;4.88;;;;;;;;;;5019470;28;20072;-62
2023/09/28 13:41:33;;;;;;;16.25;4.82;;;;;;;;;;5021774;28;20112;-62
2023/09/28 13:43:59;;;;;;;9.88;3.30;;;;;;;;;;5012613;28;20515;-62
2023/09/28 13:46:25;;;;;;;9.70;3.92;;;;;;;;;;5017328;28;20407;-62
2023/09/28 13:48:51;;;;;;;12.40;4.10;;;;;;;;;;5014801;28;20045;-62
2023/09/28 13:51:18;;;;;;;6.65;3.28;;;;;;;;;;5018688;28;20472;-62
2023/09/28 13:53:44;;;;;;;11.10;3.90;;;;;;;;;;5011677;28;20026;-62
2023/09/28 13:56:10;;;;;;;14.02;3.60;;;;;;;;;;5016837;28;20070;-62
2023/09/28 13:58:38;;;;;;;9.30;3.60;;;;;;;;;;5014500;28;20029;-62
2023/09/28 14:01:06;;;;;;;11.13;3.70;;;;;;;;;;5016241;28;20037;-62
2023/09/28 14:03:32;;;;;;;14.07;3.85;;;;;;;;;;5015447;28;20033;-61
2023/09/28 14:05:58;;;;;;;20.70;4.63;;;;;;;;;;5010735;28;20177;-61
2023/09/28 14:08:25;;;;;;;9.20;3.95;;;;;;;;;;5017115;28;20091;-61
2023/09/28 14:10:51;;;;;;;9.48;4.10;;;;;;;;;;5011913;28;20029;-62
2023/09/28 14:13:17;;;;;;;11.75;4.50;;;;;;;;;;5010060;28;20037;-60
2023/09/28 14:15:43;;;;;;;8.43;3.42;;;;;;;;;;5008224;28;20070;-62
2023/09/28 14:18:09;;;;;;;11.85;4.00;;;;;;;;;;5017360;28;20025;-62
2023/09/28 14:20:36;;;;;;;12.95;3.80;;;;;;;;;;5013516;28;20628;-62
2023/09/28 14:23:02;;;;;;;12.82;4.68;;;;;;;;;;5014692;28;20029;-62
2023/09/28 14:25:28;;;;;;;12.27;3.63;;;;;;;;;;5008159;28;20399;-62
2023/09/28 14:27:54;;;;;;;9.00;3.95;;;;;;;;;;5016410;28;20029;-62
2023/09/28 14:30:21;;;;;;;11.90;3.92;;;;;;;;;;5014766;28;20029;-61
2023/09/28 14:32:47;;;;;;;12.43;4.22;;;;;;;;;;5013060;28;20026;-62